createdAt,value
2023-04-10T00:00:57.887Z,101333.00
2023-04-10T00:03:26.587Z,101324.00
2023-04-10T00:05:55.751Z,101327.00
2023-04-10T00:08:30.057Z,101326.00
2023-04-10T00:10:58.102Z,101318.00
2023-04-10T00:13:26.496Z,101315.00
2023-04-10T00:15:54.585Z,101309.00
2023-04-10T00:18:22.549Z,101301.00
2023-04-10T00:20:51.169Z,101303.00
2023-04-10T00:23:22.708Z,101303.00
2023-04-10T00:25:51.162Z,101303.00
2023-04-10T00:28:19.659Z,101299.00
2023-04-10T00:30:48.392Z,101289.00
2023-04-10T00:33:17.062Z,101287.00
2023-04-10T00:35:45.701Z,101282.00
2023-04-10T00:38:14.426Z,101292.00
2023-04-10T00:40:42.730Z,101299.00
2023-04-10T00:43:11.306Z,101289.00
2023-04-10T00:45:40.663Z,101293.00
2023-04-10T00:48:09.171Z,101290.00
2023-04-10T00:50:38.277Z,101302.00
2023-04-10T00:53:06.657Z,101301.00
2023-04-10T00:55:34.530Z,101300.00
2023-04-10T00:58:02.602Z,101303.00
2023-04-10T01:00:31.419Z,101296.00
2023-04-10T01:03:01.741Z,101300.00
2023-04-10T01:05:40.206Z,101302.00
2023-04-10T01:08:26.229Z,101302.00
2023-04-10T01:11:03.404Z,101298.00
2023-04-10T01:14:00.632Z,101306.00
2023-04-10T01:16:35.280Z,101311.00
2023-04-10T01:19:46.935Z,101307.00
2023-04-10T01:22:15.624Z,101313.00
2023-04-10T01:25:01.295Z,101297.00
2023-04-10T01:27:53.146Z,101303.00
2023-04-10T01:30:23.475Z,101303.00
2023-04-10T01:32:52.486Z,101305.00
2023-04-10T01:35:20.985Z,101296.00
2023-04-10T01:37:49.899Z,101293.00
2023-04-10T01:40:19.963Z,101300.00
2023-04-10T01:42:55.692Z,101298.00
2023-04-10T01:45:30.259Z,101298.00
2023-04-10T01:47:59.167Z,101299.00
2023-04-10T01:50:28.915Z,101305.00
2023-04-10T01:52:59.227Z,101298.00
2023-04-10T01:55:29.163Z,101292.00
2023-04-10T01:58:03.433Z,101295.00
2023-04-10T02:00:31.769Z,101301.00
2023-04-10T02:03:00.141Z,101301.00
2023-04-10T02:05:32.931Z,101303.00
2023-04-10T02:08:15.076Z,101292.00
2023-04-10T02:10:53.188Z,101294.00
2023-04-10T02:13:22.946Z,101287.00
2023-04-10T02:15:52.614Z,101285.00
2023-04-10T02:18:21.267Z,101281.00
2023-04-10T02:20:49.422Z,101291.00
2023-04-10T02:23:19.543Z,101279.00
2023-04-10T02:25:48.101Z,101280.00
2023-04-10T02:28:18.300Z,101283.00
2023-04-10T02:30:46.514Z,101279.00
2023-04-10T02:33:14.364Z,101276.00
2023-04-10T02:35:42.826Z,101277.00
2023-04-10T02:38:11.048Z,101281.00
2023-04-10T02:40:39.249Z,101282.00
2023-04-10T02:43:15.107Z,101276.00
2023-04-10T02:45:44.235Z,101275.00
2023-04-10T02:48:16.137Z,101277.00
2023-04-10T02:50:46.812Z,101258.00
2023-04-10T02:53:16.473Z,101266.00
2023-04-10T02:55:44.642Z,101267.00
2023-04-10T02:58:14.860Z,101272.00
2023-04-10T03:00:49.472Z,101268.00
2023-04-10T03:03:38.032Z,101263.00
2023-04-10T03:06:08.034Z,101263.00
2023-04-10T03:08:37.548Z,101258.00
2023-04-10T03:11:08.182Z,101257.00
2023-04-10T03:13:36.221Z,101257.00
2023-04-10T03:16:04.727Z,101257.00
2023-04-10T03:18:34.456Z,101255.00
2023-04-10T03:21:03.012Z,101247.00
2023-04-10T03:23:31.638Z,101252.00
2023-04-10T03:25:59.777Z,101257.00
2023-04-10T03:28:30.947Z,101252.00
2023-04-10T03:30:59.028Z,101245.00
2023-04-10T03:33:28.157Z,101243.00
2023-04-10T03:35:57.561Z,101247.00
2023-04-10T03:38:26.919Z,101244.00
2023-04-10T03:40:55.020Z,101240.00
2023-04-10T03:43:26.483Z,101242.00
2023-04-10T03:45:54.669Z,101238.00
2023-04-10T03:48:24.145Z,101240.00
2023-04-10T03:50:52.721Z,101239.00
2023-04-10T03:53:20.835Z,101240.00
2023-04-10T03:55:48.966Z,101239.00
2023-04-10T03:58:16.992Z,101231.00
2023-04-10T04:00:45.674Z,101225.00
2023-04-10T04:03:34.454Z,101232.00
2023-04-10T04:06:07.802Z,101231.00
2023-04-10T04:09:04.004Z,101233.00
2023-04-10T04:11:49.707Z,101232.00
2023-04-10T04:14:40.766Z,101234.00
2023-04-10T04:17:36.851Z,101232.00
2023-04-10T04:20:06.334Z,101234.00
2023-04-10T04:22:52.700Z,101234.00
2023-04-10T04:25:59.022Z,101234.00
2023-04-10T04:28:45.844Z,101241.00
2023-04-10T04:31:32.949Z,101239.00
2023-04-10T04:34:30.207Z,101242.00
2023-04-10T04:37:13.751Z,101237.00
2023-04-10T04:40:02.557Z,101243.00
2023-04-10T04:42:56.542Z,101227.00
2023-04-10T04:45:37.100Z,101239.00
2023-04-10T04:48:23.823Z,101237.00
2023-04-10T04:51:10.330Z,101239.00
2023-04-10T04:53:45.641Z,101235.00
2023-04-10T04:56:28.584Z,101238.00
2023-04-10T04:59:15.165Z,101233.00
2023-04-10T05:02:01.210Z,101236.00
2023-04-10T05:05:07.805Z,101226.00
2023-04-10T05:07:58.012Z,101229.00
2023-04-10T05:10:46.656Z,101237.00
2023-04-10T05:13:24.240Z,101236.00
2023-04-10T05:16:18.736Z,101231.00
2023-04-10T05:19:02.332Z,101236.00
2023-04-10T05:21:49.041Z,101230.00
2023-04-10T05:24:31.534Z,101230.00
2023-04-10T05:27:19.200Z,101239.00
2023-04-10T05:29:56.359Z,101232.00
2023-04-10T05:33:02.953Z,101234.00
2023-04-10T05:35:53.483Z,101237.00
2023-04-10T05:38:37.755Z,101241.00
2023-04-10T05:41:26.904Z,101230.00
2023-04-10T05:44:17.968Z,101244.00
2023-04-10T05:46:58.200Z,101237.00
2023-04-10T05:49:47.360Z,101235.00
2023-04-10T05:52:34.014Z,101242.00
2023-04-10T05:55:22.125Z,101233.00
2023-04-10T05:58:13.048Z,101246.00
2023-04-10T06:01:11.590Z,101238.00
2023-04-10T06:03:54.052Z,101229.00
2023-04-10T06:06:24.666Z,101234.00
2023-04-10T06:08:53.443Z,101238.00
2023-04-10T06:11:23.082Z,101231.00
2023-04-10T06:13:54.686Z,101228.00
2023-04-10T06:16:28.838Z,101227.00
2023-04-10T06:18:57.202Z,101231.00
2023-04-10T06:21:25.351Z,101234.00
2023-04-10T06:23:53.625Z,101234.00
2023-04-10T06:26:21.634Z,101229.00
2023-04-10T06:28:49.886Z,101228.00
2023-04-10T06:31:23.277Z,101221.00
2023-04-10T06:33:51.878Z,101233.00
2023-04-10T06:36:19.855Z,101223.00
2023-04-10T06:38:51.969Z,101232.00
2023-04-10T06:41:20.421Z,101231.00
2023-04-10T06:43:51.087Z,101226.00
2023-04-10T06:46:19.228Z,101228.00
2023-04-10T06:48:49.583Z,101222.00
2023-04-10T06:51:17.727Z,101233.00
2023-04-10T06:53:45.842Z,101229.00
2023-04-10T06:56:13.781Z,101222.00
2023-04-10T06:58:41.777Z,101228.00
2023-04-10T07:01:09.749Z,101222.00
2023-04-10T07:03:38.664Z,101208.00
2023-04-10T07:06:08.283Z,101218.00
2023-04-10T07:08:36.605Z,101228.00
2023-04-10T07:11:05.089Z,101213.00
2023-04-10T07:13:33.459Z,101212.00
2023-04-10T07:16:01.714Z,101201.00
2023-04-10T07:18:29.730Z,101204.00
2023-04-10T07:20:57.913Z,101199.00
2023-04-10T07:23:25.833Z,101193.00
2023-04-10T07:25:54.062Z,101192.00
2023-04-10T07:28:22.241Z,101197.00
2023-04-10T07:30:50.115Z,101184.00
2023-04-10T07:33:18.065Z,101192.00
2023-04-10T07:35:46.443Z,101184.00
2023-04-10T07:38:14.572Z,101180.00
2023-04-10T07:40:42.785Z,101176.00
2023-04-10T07:43:10.801Z,101178.00
2023-04-10T07:45:39.001Z,101179.00
2023-04-10T07:48:07.429Z,101180.00
2023-04-10T07:50:36.424Z,101174.00
2023-04-10T07:53:08.198Z,101172.00
2023-04-10T07:55:54.294Z,101176.00
2023-04-10T07:58:22.947Z,101177.00
2023-04-10T08:00:52.749Z,101176.00
2023-04-10T08:03:21.264Z,101167.00
2023-04-10T08:05:49.696Z,101169.00
2023-04-10T08:08:18.232Z,101162.00
2023-04-10T08:10:46.331Z,101169.00
2023-04-10T08:13:14.608Z,101164.00
2023-04-10T08:15:42.653Z,101160.00
2023-04-10T08:18:11.019Z,101152.00
2023-04-10T08:20:39.258Z,101155.00
2023-04-10T08:23:19.826Z,101150.00
2023-04-10T08:25:48.928Z,101150.00
2023-04-10T08:28:16.873Z,101143.00
2023-04-10T08:30:45.107Z,101145.00
2023-04-10T08:33:13.280Z,101152.00
2023-04-10T08:35:42.370Z,101146.00
2023-04-10T08:38:13.975Z,101136.00
2023-04-10T08:40:44.877Z,101130.00
2023-04-10T08:43:14.321Z,101140.00
2023-04-10T08:45:42.763Z,101133.00
2023-04-10T08:48:11.819Z,101137.00
2023-04-10T08:50:50.932Z,101132.00
2023-04-10T08:53:21.743Z,101125.00
2023-04-10T08:55:49.781Z,101132.00
2023-04-10T08:58:17.989Z,101116.00
2023-04-10T09:00:46.924Z,101120.00
2023-04-10T09:03:16.955Z,101115.00
2023-04-10T09:05:45.030Z,101111.00
2023-04-10T09:08:15.036Z,101099.00
2023-04-10T09:10:43.124Z,101093.00
2023-04-10T09:13:11.440Z,101089.00
2023-04-10T09:15:59.854Z,101088.00
2023-04-10T09:18:48.231Z,101085.00
2023-04-10T09:21:18.572Z,101083.00
2023-04-10T09:23:48.647Z,101078.00
2023-04-10T09:26:30.916Z,101077.00
2023-04-10T09:29:03.523Z,101075.00
2023-04-10T09:31:34.398Z,101068.00
2023-04-10T09:34:11.756Z,101076.00
2023-04-10T09:36:46.781Z,101062.00
2023-04-10T09:39:14.854Z,101059.00
2023-04-10T09:41:53.400Z,101049.00
2023-04-10T09:44:31.484Z,101049.00
2023-04-10T09:47:22.715Z,101055.00
2023-04-10T09:49:55.625Z,101039.00
2023-04-10T09:52:28.385Z,101039.00
2023-04-10T09:55:08.821Z,101033.00
2023-04-10T09:57:38.833Z,101042.00
2023-04-10T10:00:09.722Z,101029.00
2023-04-10T10:02:43.503Z,101034.00
2023-04-10T10:05:12.728Z,101033.00
2023-04-10T10:07:40.984Z,101025.00
2023-04-10T10:10:13.299Z,101022.00
2023-04-10T10:13:02.911Z,101016.00
2023-04-10T10:15:39.432Z,101016.00
2023-04-10T10:18:22.701Z,101000.00
2023-04-10T10:20:51.780Z,101003.00
2023-04-10T10:23:20.923Z,100995.00
2023-04-10T10:25:50.262Z,101004.00
2023-04-10T10:28:19.442Z,100994.00
2023-04-10T10:30:50.043Z,100992.00
2023-04-10T10:33:18.795Z,100985.00
2023-04-10T10:35:47.814Z,100979.00
2023-04-10T10:38:16.709Z,100980.00
2023-04-10T10:41:17.209Z,100971.00
2023-04-10T10:44:13.871Z,100961.00
2023-04-10T10:47:16.329Z,100948.00
2023-04-10T10:49:58.298Z,100948.00
2023-04-10T10:52:41.937Z,100945.00
2023-04-10T10:55:39.844Z,100946.00
2023-04-10T10:58:11.903Z,100938.00
2023-04-10T11:00:52.442Z,100934.00
2023-04-10T11:03:23.081Z,100918.00
2023-04-10T11:05:54.374Z,100924.00
2023-04-10T11:08:37.698Z,100935.00
2023-04-10T11:11:06.607Z,100930.00
2023-04-10T11:14:01.589Z,100917.00
2023-04-10T11:16:40.081Z,100912.00
2023-04-10T11:19:16.426Z,100901.00
2023-04-10T11:22:15.481Z,100912.00
2023-04-10T11:25:00.551Z,100909.00
2023-04-10T11:27:49.618Z,100902.00
2023-04-10T11:30:37.302Z,100889.00
2023-04-10T11:33:09.298Z,100885.00
2023-04-10T11:35:37.437Z,100883.00
2023-04-10T11:38:14.455Z,100876.00
2023-04-10T11:41:04.558Z,100879.00
2023-04-10T11:43:35.362Z,100874.00
2023-04-10T11:46:08.139Z,100871.00
2023-04-10T11:48:39.597Z,100871.00
2023-04-10T11:51:22.812Z,100850.00
2023-04-10T11:53:51.294Z,100861.00
2023-04-10T11:56:22.302Z,100852.00
2023-04-10T11:58:58.387Z,100846.00
2023-04-10T12:01:29.763Z,100838.00
2023-04-10T12:03:58.731Z,100843.00
2023-04-10T12:06:28.658Z,100843.00
2023-04-10T12:09:17.815Z,100825.00
2023-04-10T12:12:02.153Z,100837.00
2023-04-10T12:14:33.531Z,100815.00
2023-04-10T12:17:01.893Z,100805.00
2023-04-10T12:19:31.615Z,100795.00
2023-04-10T12:22:08.891Z,100802.00
2023-04-10T12:24:44.882Z,100785.00
2023-04-10T12:27:25.910Z,100788.00
2023-04-10T12:29:54.958Z,100775.00
2023-04-10T12:32:24.666Z,100778.00
2023-04-10T12:35:02.704Z,100780.00
2023-04-10T12:37:55.349Z,100779.00
2023-04-10T12:40:23.327Z,100770.00
2023-04-10T12:42:55.096Z,100762.00
2023-04-10T12:45:41.584Z,100755.00
2023-04-10T12:48:09.972Z,100767.00
2023-04-10T12:50:48.293Z,100749.00
2023-04-10T12:53:17.003Z,100749.00
2023-04-10T12:56:05.702Z,100762.00
2023-04-10T12:58:35.133Z,100756.00
2023-04-10T13:01:09.647Z,100746.00
2023-04-10T13:03:38.879Z,100742.00
2023-04-10T13:06:08.161Z,100763.00
2023-04-10T13:08:37.435Z,100737.00
2023-04-10T13:11:07.385Z,100722.00
2023-04-10T13:13:35.927Z,100723.00
2023-04-10T13:16:05.207Z,100729.00
2023-04-10T13:18:33.436Z,100724.00
2023-04-10T13:21:02.434Z,100720.00
2023-04-10T13:23:30.802Z,100714.00
2023-04-10T13:25:59.403Z,100722.00
2023-04-10T13:28:27.669Z,100719.00
2023-04-10T13:30:56.883Z,100716.00
2023-04-10T13:33:25.387Z,100699.00
2023-04-10T13:35:59.578Z,100709.00
2023-04-10T13:38:35.532Z,100696.00
2023-04-10T13:41:04.336Z,100688.00
2023-04-10T13:43:32.365Z,100677.00
2023-04-10T13:46:00.930Z,100696.00
2023-04-10T13:48:37.546Z,100675.00
2023-04-10T13:51:08.635Z,100670.00
2023-04-10T13:53:37.564Z,100658.00
2023-04-10T13:56:07.017Z,100658.00
2023-04-10T13:58:35.368Z,100654.00
2023-04-10T14:01:03.707Z,100648.00
2023-04-10T14:03:32.665Z,100645.00
2023-04-10T14:06:01.469Z,100655.00
2023-04-10T14:08:29.645Z,100661.00
2023-04-10T14:10:58.562Z,100640.00
2023-04-10T14:13:28.060Z,100643.00
2023-04-10T14:15:56.835Z,100625.00
2023-04-10T14:18:25.793Z,100628.00
2023-04-10T14:20:54.073Z,100610.00
2023-04-10T14:23:23.170Z,100621.00
2023-04-10T14:25:51.746Z,100614.00
2023-04-10T14:28:25.064Z,100618.00
2023-04-10T14:30:53.419Z,100612.00
2023-04-10T14:33:21.889Z,100618.00
2023-04-10T14:35:51.724Z,100601.00
2023-04-10T14:38:20.178Z,100593.00
2023-04-10T14:40:50.510Z,100586.00
2023-04-10T14:43:20.013Z,100587.00
2023-04-10T14:45:48.823Z,100575.00
2023-04-10T14:48:17.829Z,100560.00
2023-04-10T14:50:49.758Z,100562.00
2023-04-10T14:53:21.808Z,100547.00
2023-04-10T14:55:50.452Z,100558.00
2023-04-10T14:58:20.410Z,100544.00
2023-04-10T15:00:48.994Z,100532.00
2023-04-10T15:03:17.033Z,100539.00
2023-04-10T15:05:47.453Z,100525.00
2023-04-10T15:08:15.564Z,100525.00
2023-04-10T15:10:43.798Z,100516.00
2023-04-10T15:13:12.420Z,100525.00
2023-04-10T15:15:40.718Z,100511.00
2023-04-10T15:18:09.267Z,100510.00
2023-04-10T15:20:37.889Z,100510.00
2023-04-10T15:23:06.346Z,100498.00
2023-04-10T15:25:37.889Z,100497.00
2023-04-10T15:28:08.112Z,100505.00
2023-04-10T15:30:36.226Z,100488.00
2023-04-10T15:33:04.816Z,100478.00
2023-04-10T15:35:37.579Z,100475.00
2023-04-10T15:38:07.482Z,100480.00
2023-04-10T15:40:39.933Z,100457.00
2023-04-10T15:43:08.204Z,100457.00
2023-04-10T15:45:37.765Z,100443.00
2023-04-10T15:48:06.125Z,100443.00
2023-04-10T15:50:35.725Z,100428.00
2023-04-10T15:53:03.998Z,100426.00
2023-04-10T15:55:31.971Z,100421.00
2023-04-10T15:58:01.769Z,100413.00
2023-04-10T16:00:33.664Z,100404.00
2023-04-10T16:03:03.573Z,100406.00
2023-04-10T16:05:32.254Z,100390.00
2023-04-10T16:08:00.355Z,100381.00
2023-04-10T16:10:28.543Z,100374.00
2023-04-10T16:12:56.917Z,100372.00
2023-04-10T16:15:24.752Z,100361.00
2023-04-10T16:17:52.774Z,100355.00
2023-04-10T16:20:21.115Z,100356.00
2023-04-10T16:22:50.755Z,100352.00
2023-04-10T16:25:21.503Z,100350.00
2023-04-10T16:27:53.436Z,100341.00
2023-04-10T16:30:21.818Z,100343.00
2023-04-10T16:32:49.850Z,100343.00
2023-04-10T16:35:19.440Z,100336.00
2023-04-10T16:37:48.454Z,100325.00
2023-04-10T16:40:16.587Z,100319.00
2023-04-10T16:42:44.979Z,100317.00
2023-04-10T16:45:13.374Z,100303.00
2023-04-10T16:47:42.423Z,100307.00
2023-04-10T16:50:13.937Z,100305.00
2023-04-10T16:52:43.830Z,100296.00
2023-04-10T16:55:15.834Z,100299.00
2023-04-10T16:57:48.233Z,100292.00
2023-04-10T17:00:19.398Z,100293.00
2023-04-10T17:02:48.940Z,100302.00
2023-04-10T17:05:17.883Z,100293.00
2023-04-10T17:07:45.998Z,100283.00
2023-04-10T17:10:15.309Z,100277.00
2023-04-10T17:12:43.808Z,100278.00
2023-04-10T17:15:13.783Z,100270.00
2023-04-10T17:17:42.107Z,100276.00
2023-04-10T17:20:12.213Z,100268.00
2023-04-10T17:22:41.949Z,100259.00
2023-04-10T17:25:11.086Z,100271.00
2023-04-10T17:27:40.742Z,100271.00
2023-04-10T17:30:13.026Z,100263.00
2023-04-10T17:32:44.835Z,100262.00
2023-04-10T17:35:12.995Z,100252.00
2023-04-10T17:37:41.067Z,100251.00
2023-04-10T17:40:10.184Z,100246.00
2023-04-10T17:42:40.381Z,100240.00
2023-04-10T17:45:09.131Z,100241.00
2023-04-10T17:47:37.999Z,100237.00
2023-04-10T17:50:08.538Z,100247.00
2023-04-10T17:52:42.517Z,100232.00
2023-04-10T17:55:10.700Z,100233.00
2023-04-10T17:57:40.549Z,100228.00
2023-04-10T18:00:11.367Z,100237.00
2023-04-10T18:02:39.540Z,100236.00
2023-04-10T18:05:08.787Z,100227.00
2023-04-10T18:07:38.184Z,100210.00
2023-04-10T18:10:09.727Z,100213.00
2023-04-10T18:12:40.862Z,100216.00
2023-04-10T18:15:09.804Z,100212.00
2023-04-10T18:17:39.392Z,100220.00
2023-04-10T18:20:08.784Z,100214.00
2023-04-10T18:22:36.859Z,100214.00
2023-04-10T18:25:08.530Z,100217.00
2023-04-10T18:27:36.909Z,100221.00
2023-04-10T18:30:05.385Z,100216.00
2023-04-10T18:32:34.030Z,100213.00
2023-04-10T18:35:04.144Z,100208.00
2023-04-10T18:37:33.005Z,100209.00
2023-04-10T18:40:09.879Z,100201.00
2023-04-10T18:42:44.107Z,100199.00
2023-04-10T18:45:13.315Z,100198.00
2023-04-10T18:47:41.822Z,100185.00
2023-04-10T18:50:12.217Z,100180.00
2023-04-10T18:52:40.178Z,100183.00
2023-04-10T18:55:08.570Z,100182.00
2023-04-10T18:57:36.561Z,100171.00
2023-04-10T19:00:07.083Z,100158.00
2023-04-10T19:02:39.132Z,100153.00
2023-04-10T19:05:08.747Z,100154.00
2023-04-10T19:07:43.289Z,100147.00
2023-04-10T19:10:16.818Z,100144.00
2023-04-10T19:12:45.701Z,100133.00
2023-04-10T19:15:14.665Z,100132.00
2023-04-10T19:17:42.803Z,100129.00
2023-04-10T19:20:11.527Z,100125.00
2023-04-10T19:22:40.004Z,100121.00
2023-04-10T19:25:08.473Z,100121.00
2023-04-10T19:27:37.146Z,100117.00
2023-04-10T19:30:06.154Z,100104.00
2023-04-10T19:32:42.366Z,100097.00
2023-04-10T19:35:13.668Z,100097.00
2023-04-10T19:37:42.965Z,100097.00
2023-04-10T19:40:11.967Z,100097.00
2023-04-10T19:42:40.417Z,100080.00
2023-04-10T19:45:09.458Z,100076.00
2023-04-10T19:47:38.880Z,100082.00
2023-04-10T19:50:08.292Z,100076.00
2023-04-10T19:52:37.838Z,100069.00
2023-04-10T19:55:07.832Z,100065.00
2023-04-10T19:57:39.139Z,100068.00
2023-04-10T20:00:10.136Z,100061.00
2023-04-10T20:02:42.514Z,100056.00
2023-04-10T20:05:11.707Z,100063.00
2023-04-10T20:07:39.927Z,100052.00
2023-04-10T20:10:11.082Z,100057.00
2023-04-10T20:12:39.920Z,100056.00
2023-04-10T20:15:09.171Z,100053.00
2023-04-10T20:17:39.888Z,100055.00
2023-04-10T20:20:09.073Z,100060.00
2023-04-10T20:22:37.656Z,100062.00
2023-04-10T20:25:07.377Z,100061.00
2023-04-10T20:27:35.517Z,100046.00
2023-04-10T20:30:05.348Z,100042.00
2023-04-10T20:32:34.959Z,100036.00
2023-04-10T20:35:03.872Z,100022.00
2023-04-10T20:37:32.225Z,100015.00
2023-04-10T20:40:01.211Z,100004.00
2023-04-10T20:42:29.646Z,100001.00
2023-04-10T20:44:58.211Z,99991.00
2023-04-10T20:47:26.902Z,100002.00
2023-04-10T20:49:55.364Z,100006.00
2023-04-10T20:52:24.547Z,100001.00
2023-04-10T20:54:53.165Z,99984.00
2023-04-10T20:57:21.476Z,99975.00
2023-04-10T20:59:50.358Z,99976.00
2023-04-10T21:02:19.057Z,99976.00
2023-04-10T21:04:47.944Z,99966.00
2023-04-10T21:07:16.078Z,99973.00
2023-04-10T21:09:45.086Z,99967.00
2023-04-10T21:12:13.805Z,99971.00
2023-04-10T21:14:42.072Z,99956.00
2023-04-10T21:17:10.040Z,99945.00
2023-04-10T21:19:38.209Z,99937.00
2023-04-10T21:22:06.705Z,99939.00
2023-04-10T21:24:36.746Z,99930.00
2023-04-10T21:27:05.737Z,99924.00
2023-04-10T21:29:35.305Z,99920.00
2023-04-10T21:32:03.952Z,99914.00
2023-04-10T21:34:36.419Z,99913.00
2023-04-10T21:37:05.115Z,99914.00
2023-04-10T21:39:39.426Z,99902.00
2023-04-10T21:42:08.848Z,99907.00
2023-04-10T21:44:44.558Z,99901.00
2023-04-10T21:47:14.581Z,99902.00
2023-04-10T21:49:42.967Z,99896.00
2023-04-10T21:52:18.648Z,99889.00
2023-04-10T21:54:46.985Z,99897.00
2023-04-10T21:57:15.607Z,99886.00
2023-04-10T21:59:46.038Z,99884.00
2023-04-10T22:02:14.749Z,99872.00
2023-04-10T22:04:53.808Z,99870.00
2023-04-10T22:07:23.601Z,99871.00
2023-04-10T22:09:52.064Z,99867.00
2023-04-10T22:12:21.555Z,99867.00
2023-04-10T22:14:51.456Z,99864.00
2023-04-10T22:17:19.817Z,99874.00
2023-04-10T22:19:48.764Z,99876.00
2023-04-10T22:22:20.944Z,99875.00
2023-04-10T22:24:50.333Z,99878.00
2023-04-10T22:27:18.926Z,99878.00
2023-04-10T22:30:02.196Z,99872.00
2023-04-10T22:32:32.130Z,99875.00
2023-04-10T22:35:01.381Z,99878.00
2023-04-10T22:37:30.111Z,99875.00
2023-04-10T22:40:00.866Z,99870.00
2023-04-10T22:42:32.002Z,99867.00
2023-04-10T22:45:00.904Z,99874.00
2023-04-10T22:47:29.227Z,99854.00
2023-04-10T22:49:58.818Z,99872.00
2023-04-10T22:52:27.407Z,99864.00
2023-04-10T22:54:55.961Z,99872.00
2023-04-10T22:57:24.676Z,99849.00
2023-04-10T22:59:52.880Z,99851.00
2023-04-10T23:02:21.550Z,99842.00
2023-04-10T23:04:51.146Z,99841.00
2023-04-10T23:07:19.454Z,99833.00
2023-04-10T23:09:47.899Z,99826.00
2023-04-10T23:12:16.102Z,99823.00
2023-04-10T23:14:45.270Z,99823.00
2023-04-10T23:17:15.122Z,99803.00
2023-04-10T23:19:43.397Z,99796.00
2023-04-10T23:22:13.226Z,99796.00
2023-04-10T23:24:42.316Z,99800.00
2023-04-10T23:27:11.230Z,99803.00
2023-04-10T23:29:40.119Z,99803.00
2023-04-10T23:32:08.607Z,99805.00
2023-04-10T23:34:37.459Z,99806.00
2023-04-10T23:37:05.575Z,99798.00
2023-04-10T23:39:34.771Z,99801.00
2023-04-10T23:42:03.672Z,99791.00
2023-04-10T23:44:32.003Z,99798.00
2023-04-10T23:47:00.858Z,99811.00
2023-04-10T23:49:29.037Z,99810.00
2023-04-10T23:51:57.189Z,99823.00
2023-04-10T23:54:25.159Z,99826.00
2023-04-10T23:56:53.243Z,99833.00
2023-04-10T23:59:21.393Z,99822.00
